createdAt,value
2018-02-27T00:00:52.630Z,1020.43
2018-02-27T00:02:02.061Z,1020.44
2018-02-27T00:03:12.002Z,1020.45
2018-02-27T00:04:21.962Z,1020.38
2018-02-27T00:05:31.904Z,1020.36
2018-02-27T00:06:41.600Z,1020.34
2018-02-27T00:07:51.545Z,1020.29
2018-02-27T00:09:01.235Z,1020.32
2018-02-27T00:10:11.186Z,1020.31
2018-02-27T00:11:21.150Z,1020.3
2018-02-27T00:12:30.851Z,1020.26
2018-02-27T00:13:40.794Z,1020.3
2018-02-27T00:14:50.744Z,1020.3
2018-02-27T00:16:00.181Z,1020.25
2018-02-27T00:17:10.183Z,1020.26
2018-02-27T00:18:19.866Z,1020.27
2018-02-27T00:19:29.818Z,1020.25
2018-02-27T00:20:39.774Z,1020.28
2018-02-27T00:21:49.720Z,1020.25
2018-02-27T00:22:59.140Z,1020.24
2018-02-27T00:24:08.821Z,1020.23
2018-02-27T00:25:17.993Z,1020.3
2018-02-27T00:26:27.674Z,1020.27
2018-02-27T00:27:37.361Z,1020.26
2018-02-27T00:28:47.302Z,1020.31
2018-02-27T00:29:57.029Z,1020.32
2018-02-27T00:31:06.974Z,1020.29
2018-02-27T00:32:16.660Z,1020.27
2018-02-27T00:33:26.346Z,1020.29
2018-02-27T00:34:36.037Z,1020.28
2018-02-27T00:35:45.726Z,1020.27
2018-02-27T00:36:55.696Z,1020.21
2018-02-27T00:38:05.648Z,1020.26
2018-02-27T00:39:15.606Z,1020.22
2018-02-27T00:40:25.032Z,1020.23
2018-02-27T00:41:35.010Z,1020.22
2018-02-27T00:42:44.747Z,1020.23
2018-02-27T00:43:54.690Z,1020.21
2018-02-27T00:45:03.853Z,1020.21
2018-02-27T00:46:13.815Z,1020.14
2018-02-27T00:47:23.762Z,1020.14
2018-02-27T00:48:33.450Z,1020.13
2018-02-27T00:49:42.873Z,1020.08
2018-02-27T00:50:52.566Z,1020.1
2018-02-27T00:52:02.265Z,1020.13
2018-02-27T00:53:11.950Z,1020.09
2018-02-27T00:54:21.902Z,1020.1
2018-02-27T00:55:31.335Z,1020.11
2018-02-27T00:56:40.765Z,1020.1
2018-02-27T00:57:50.468Z,1020.09
2018-02-27T00:59:00.418Z,1020.14
2018-02-27T01:00:10.373Z,1020.12
2018-02-27T01:01:20.324Z,1020.1
2018-02-27T01:02:30.011Z,1020.09
2018-02-27T01:03:39.951Z,1020.07
2018-02-27T01:04:49.898Z,1020.11
2018-02-27T01:05:59.849Z,1020.07
2018-02-27T01:07:09.561Z,1020.06
2018-02-27T01:08:19.515Z,1020.12
2018-02-27T01:09:29.481Z,1020.09
2018-02-27T01:10:39.424Z,1020.11
2018-02-27T01:11:49.107Z,1020.07
2018-02-27T01:12:58.797Z,1020.06
2018-02-27T01:14:08.480Z,1020.06
2018-02-27T01:15:18.423Z,1020.01
2018-02-27T01:16:28.370Z,1020.01
2018-02-27T01:17:38.322Z,1019.97
2018-02-27T01:18:48.262Z,1019.97
2018-02-27T01:19:58.216Z,1019.95
2018-02-27T01:21:08.189Z,1019.98
2018-02-27T01:22:18.136Z,1019.93
2018-02-27T01:23:28.082Z,1019.95
2018-02-27T01:24:38.071Z,1019.98
2018-02-27T01:25:47.757Z,1019.98
2018-02-27T01:26:57.815Z,1019.94
2018-02-27T01:28:07.832Z,1019.97
2018-02-27T01:29:17.774Z,1019.91
2018-02-27T01:30:27.728Z,1019.92
2018-02-27T01:31:37.674Z,1019.89
2018-02-27T01:32:47.615Z,1019.91
2018-02-27T01:33:57.567Z,1019.9
2018-02-27T01:35:07.521Z,1019.93
2018-02-27T01:36:17.480Z,1019.95
2018-02-27T01:37:27.424Z,1019.93
2018-02-27T01:38:37.371Z,1019.96
2018-02-27T01:39:47.062Z,1019.93
2018-02-27T01:40:57.005Z,1019.94
2018-02-27T01:42:06.949Z,1019.93
2018-02-27T01:43:16.899Z,1019.89
2018-02-27T01:44:26.844Z,1019.86
2018-02-27T01:45:36.799Z,1019.85
2018-02-27T01:46:46.488Z,1019.8
2018-02-27T01:47:56.439Z,1019.85
2018-02-27T01:49:06.133Z,1019.85
2018-02-27T01:50:16.082Z,1019.89
2018-02-27T01:51:25.514Z,1019.89
2018-02-27T01:52:34.946Z,1019.87
2018-02-27T01:53:44.631Z,1019.84
2018-02-27T01:54:54.589Z,1019.86
2018-02-27T01:56:04.273Z,1019.84
2018-02-27T01:57:13.953Z,1019.85
2018-02-27T01:58:23.119Z,1019.79
2018-02-27T01:59:33.060Z,1019.72
2018-02-27T02:00:43.002Z,1019.71
2018-02-27T02:01:52.698Z,1019.73
2018-02-27T02:03:02.652Z,1019.72
2018-02-27T02:04:12.351Z,1019.69
2018-02-27T02:05:22.051Z,1019.67
2018-02-27T02:06:31.481Z,1019.64
2018-02-27T02:07:40.664Z,1019.57
2018-02-27T02:08:50.090Z,1019.62
2018-02-27T02:09:59.775Z,1019.6
2018-02-27T02:11:09.730Z,1019.57
2018-02-27T02:12:19.420Z,1019.62
2018-02-27T02:13:29.096Z,1019.57
2018-02-27T02:14:38.781Z,1019.56
2018-02-27T02:15:48.739Z,1019.54
2018-02-27T02:16:58.451Z,1019.53
2018-02-27T02:18:08.400Z,1019.49
2018-02-27T02:19:17.601Z,1019.5
2018-02-27T02:20:27.021Z,1019.52
2018-02-27T02:21:36.202Z,1019.5
2018-02-27T02:22:46.164Z,1019.49
2018-02-27T02:23:55.855Z,1019.49
2018-02-27T02:25:05.286Z,1019.51
2018-02-27T02:26:14.983Z,1019.52
2018-02-27T02:27:24.415Z,1019.52
2018-02-27T02:28:34.135Z,1019.46
2018-02-27T02:29:43.826Z,1019.47
2018-02-27T02:30:53.782Z,1019.46
2018-02-27T02:32:03.731Z,1019.44
2018-02-27T02:33:13.441Z,1019.42
2018-02-27T02:34:23.132Z,1019.44
2018-02-27T02:35:32.843Z,1019.43
2018-02-27T02:36:42.533Z,1019.38
2018-02-27T02:37:52.226Z,1019.39
2018-02-27T02:39:01.944Z,1019.36
2018-02-27T02:40:11.889Z,1019.38
2018-02-27T02:41:21.828Z,1019.41
2018-02-27T02:42:31.000Z,1019.36
2018-02-27T02:43:40.938Z,1019.35
2018-02-27T02:44:50.627Z,1019.33
2018-02-27T02:46:00.320Z,1019.37
2018-02-27T02:47:09.754Z,1019.34
2018-02-27T02:48:19.456Z,1019.37
2018-02-27T02:49:28.880Z,1019.34
2018-02-27T02:50:38.570Z,1019.34
2018-02-27T02:51:48.520Z,1019.31
2018-02-27T02:52:58.216Z,1019.29
2018-02-27T02:54:08.163Z,1019.29
2018-02-27T02:55:17.846Z,1019.26
2018-02-27T02:56:27.523Z,1019.29
2018-02-27T02:57:37.209Z,1019.29
2018-02-27T02:58:46.895Z,1019.22
2018-02-27T02:59:56.582Z,1019.21
2018-02-27T03:01:06.276Z,1019.23
2018-02-27T03:02:15.962Z,1019.21
2018-02-27T03:03:25.643Z,1019.19
2018-02-27T03:04:35.593Z,1019.18
2018-02-27T03:05:45.026Z,1019.17
2018-02-27T03:06:54.720Z,1019.17
2018-02-27T03:08:04.667Z,1019.16
2018-02-27T03:09:14.368Z,1019.15
2018-02-27T03:10:24.359Z,1019.17
2018-02-27T03:11:34.051Z,1019.14
2018-02-27T03:12:43.745Z,1019.18
2018-02-27T03:13:53.416Z,1019.13
2018-02-27T03:15:02.843Z,1019.18
2018-02-27T03:16:12.786Z,1019.16
2018-02-27T03:17:22.741Z,1019.13
2018-02-27T03:18:31.933Z,1019.12
2018-02-27T03:19:41.627Z,1019.11
2018-02-27T03:20:51.058Z,1019.12
2018-02-27T03:22:00.231Z,1019.12
2018-02-27T03:23:10.182Z,1019.12
2018-02-27T03:24:20.135Z,1019.12
2018-02-27T03:25:30.101Z,1019.09
2018-02-27T03:26:39.785Z,1019.05
2018-02-27T03:27:49.753Z,1019.01
2018-02-27T03:28:59.443Z,1019.06
2018-02-27T03:30:09.391Z,1019.05
2018-02-27T03:31:19.346Z,1019.04
2018-02-27T03:32:29.312Z,1018.97
2018-02-27T03:33:39.265Z,1019.01
2018-02-27T03:34:48.960Z,1018.95
2018-02-27T03:35:58.904Z,1018.94
2018-02-27T03:37:08.865Z,1018.91
2018-02-27T03:38:18.822Z,1018.86
2018-02-27T03:39:28.772Z,1018.84
2018-02-27T03:40:38.464Z,1018.79
2018-02-27T03:41:48.414Z,1018.78
2018-02-27T03:42:58.104Z,1018.77
2018-02-27T03:44:07.289Z,1018.83
2018-02-27T03:45:16.715Z,1018.83
2018-02-27T03:46:26.401Z,1018.82
2018-02-27T03:47:36.345Z,1018.77
2018-02-27T03:48:46.051Z,1018.78
2018-02-27T03:49:56.006Z,1018.78
2018-02-27T03:51:05.953Z,1018.74
2018-02-27T03:52:15.662Z,1018.73
2018-02-27T03:53:25.617Z,1018.75
2018-02-27T03:54:35.568Z,1018.78
2018-02-27T03:55:45.005Z,1018.76
2018-02-27T03:56:54.949Z,1018.77
2018-02-27T03:58:04.893Z,1018.75
2018-02-27T03:59:14.842Z,1018.77
2018-02-27T04:00:24.799Z,1018.75
2018-02-27T04:01:34.493Z,1018.76
2018-02-27T04:02:44.171Z,1018.78
2018-02-27T04:03:53.853Z,1018.71
2018-02-27T04:05:03.541Z,1018.67
2018-02-27T04:06:12.981Z,1018.73
2018-02-27T04:07:22.663Z,1018.74
2018-02-27T04:08:32.091Z,1018.71
2018-02-27T04:09:42.036Z,1018.71
2018-02-27T04:10:51.984Z,1018.67
2018-02-27T04:12:01.415Z,1018.71
2018-02-27T04:13:11.106Z,1018.68
2018-02-27T04:14:20.783Z,1018.7
2018-02-27T04:15:30.745Z,1018.68
2018-02-27T04:16:39.967Z,1018.7
2018-02-27T04:17:49.397Z,1018.66
2018-02-27T04:18:59.077Z,1018.65
2018-02-27T04:20:09.021Z,1018.69
2018-02-27T04:21:18.718Z,1018.68
2018-02-27T04:22:28.402Z,1018.66
2018-02-27T04:23:38.351Z,1018.67
2018-02-27T04:24:48.052Z,1018.67
2018-02-27T04:25:58.017Z,1018.68
2018-02-27T04:27:07.444Z,1018.65
2018-02-27T04:28:17.392Z,1018.67
2018-02-27T04:29:27.359Z,1018.65
2018-02-27T04:30:37.397Z,1018.65
2018-02-27T04:31:47.081Z,1018.7
2018-02-27T04:32:57.024Z,1018.62
2018-02-27T04:34:06.449Z,1018.63
2018-02-27T04:35:16.398Z,1018.59
2018-02-27T04:36:26.331Z,1018.64
2018-02-27T04:37:36.026Z,1018.63
2018-02-27T04:38:45.706Z,1018.65
2018-02-27T04:39:55.652Z,1018.69
2018-02-27T04:41:05.417Z,1018.66
2018-02-27T04:42:15.359Z,1018.67
2018-02-27T04:43:24.785Z,1018.71
2018-02-27T04:44:34.490Z,1018.69
2018-02-27T04:45:44.176Z,1018.67
2018-02-27T04:46:54.121Z,1018.65
2018-02-27T04:48:03.809Z,1018.67
2018-02-27T04:49:13.495Z,1018.69
2018-02-27T04:50:22.930Z,1018.63
2018-02-27T04:51:32.888Z,1018.65
2018-02-27T04:52:42.320Z,1018.66
2018-02-27T04:53:51.768Z,1018.65
2018-02-27T04:55:01.450Z,1018.65
2018-02-27T04:56:11.123Z,1018.65
2018-02-27T04:57:20.811Z,1018.62
2018-02-27T04:58:30.502Z,1018.64
2018-02-27T04:59:40.192Z,1018.59
2018-02-27T05:00:50.134Z,1018.64
2018-02-27T05:02:00.139Z,1018.59
2018-02-27T05:03:10.100Z,1018.55
2018-02-27T05:04:20.056Z,1018.59
2018-02-27T05:05:29.996Z,1018.54
2018-02-27T05:06:39.949Z,1018.55
2018-02-27T05:07:49.905Z,1018.52
2018-02-27T05:08:59.607Z,1018.53
2018-02-27T05:10:09.031Z,1018.53
2018-02-27T05:11:18.466Z,1018.51
2018-02-27T05:12:28.417Z,1018.5
2018-02-27T05:13:38.138Z,1018.5
2018-02-27T05:14:47.825Z,1018.49
2018-02-27T05:15:57.793Z,1018.47
2018-02-27T05:17:07.487Z,1018.46
2018-02-27T05:18:16.908Z,1018.44
2018-02-27T05:19:26.882Z,1018.44
2018-02-27T05:20:36.362Z,1018.39
2018-02-27T05:21:46.311Z,1018.39
2018-02-27T05:22:55.738Z,1018.37
2018-02-27T05:24:05.701Z,1018.35
2018-02-27T05:25:15.391Z,1018.33
2018-02-27T05:26:25.079Z,1018.32
2018-02-27T05:27:35.026Z,1018.36
2018-02-27T05:28:44.469Z,1018.27
2018-02-27T05:29:54.411Z,1018.24
2018-02-27T05:31:04.351Z,1018.3
2018-02-27T05:32:14.048Z,1018.29
2018-02-27T05:33:23.992Z,1018.28
2018-02-27T05:34:33.419Z,1018.28
2018-02-27T05:35:42.924Z,1018.27
2018-02-27T05:36:52.613Z,1018.24
2018-02-27T05:38:02.552Z,1018.2
2018-02-27T05:39:12.559Z,1018.19
2018-02-27T05:40:22.508Z,1018.24
2018-02-27T05:41:32.458Z,1018.22
2018-02-27T05:42:42.146Z,1018.28
2018-02-27T05:43:51.586Z,1018.25
2018-02-27T05:45:01.788Z,1018.31
2018-02-27T05:46:11.740Z,1018.29
2018-02-27T05:47:21.690Z,1018.32
2018-02-27T05:48:31.636Z,1018.31
2018-02-27T05:49:41.591Z,1018.31
2018-02-27T05:50:51.547Z,1018.31
2018-02-27T05:52:01.518Z,1018.26
2018-02-27T05:53:11.461Z,1018.27
2018-02-27T05:54:21.411Z,1018.27
2018-02-27T05:55:31.365Z,1018.27
2018-02-27T05:56:41.310Z,1018.23
2018-02-27T05:57:51.263Z,1018.26
2018-02-27T05:59:00.953Z,1018.25
2018-02-27T06:00:10.899Z,1018.26
2018-02-27T06:01:20.600Z,1018.28
2018-02-27T06:02:30.305Z,1018.29
2018-02-27T06:03:40.107Z,1018.3
2018-02-27T06:04:49.798Z,1018.29
2018-02-27T06:05:59.823Z,1018.32
2018-02-27T06:07:09.784Z,1018.25
2018-02-27T06:08:19.486Z,1018.27
2018-02-27T06:09:29.453Z,1018.28
2018-02-27T06:10:39.408Z,1018.28
2018-02-27T06:11:49.105Z,1018.3
2018-02-27T06:12:58.797Z,1018.29
2018-02-27T06:14:08.862Z,1018.3
2018-02-27T06:15:18.801Z,1018.33
2018-02-27T06:16:28.744Z,1018.27
2018-02-27T06:17:38.690Z,1018.28
2018-02-27T06:18:48.390Z,1018.31
2018-02-27T06:19:58.088Z,1018.31
2018-02-27T06:21:07.784Z,1018.28
2018-02-27T06:22:17.225Z,1018.27
2018-02-27T06:23:26.914Z,1018.28
2018-02-27T06:24:36.873Z,1018.26
2018-02-27T06:25:46.561Z,1018.26
2018-02-27T06:26:56.260Z,1018.28
2018-02-27T06:28:06.202Z,1018.28
2018-02-27T06:29:15.890Z,1018.28
2018-02-27T06:30:25.329Z,1018.3
2018-02-27T06:31:35.023Z,1018.28
2018-02-27T06:32:44.974Z,1018.34
2018-02-27T06:33:54.656Z,1018.31
2018-02-27T06:35:04.892Z,1018.31
2018-02-27T06:36:14.597Z,1018.29
2018-02-27T06:37:24.579Z,1018.29
2018-02-27T06:38:34.543Z,1018.29
2018-02-27T06:39:44.497Z,1018.3
2018-02-27T06:40:54.201Z,1018.27
2018-02-27T06:42:03.888Z,1018.29
2018-02-27T06:43:13.838Z,1018.28
2018-02-27T06:44:23.533Z,1018.29
2018-02-27T06:45:33.533Z,1018.28
2018-02-27T06:46:43.249Z,1018.28
2018-02-27T06:47:53.193Z,1018.27
2018-02-27T06:49:03.172Z,1018.25
2018-02-27T06:50:13.061Z,1018.21
2018-02-27T06:51:23.033Z,1018.27
2018-02-27T06:52:32.742Z,1018.22
2018-02-27T06:53:42.684Z,1018.28
2018-02-27T06:54:52.371Z,1018.28
2018-02-27T06:56:02.342Z,1018.21
2018-02-27T06:57:12.039Z,1018.25
2018-02-27T06:58:21.742Z,1018.23
2018-02-27T06:59:31.432Z,1018.21
2018-02-27T07:00:41.382Z,1018.23
2018-02-27T07:01:51.085Z,1018.21
2018-02-27T07:03:00.518Z,1018.21
2018-02-27T07:04:10.668Z,1018.19
2018-02-27T07:05:20.125Z,1018.17
2018-02-27T07:06:29.553Z,1018.15
2018-02-27T07:07:39.245Z,1018.15
2018-02-27T07:08:49.205Z,1018.16
2018-02-27T07:09:58.644Z,1018.18
2018-02-27T07:11:08.334Z,1018.12
2018-02-27T07:12:18.028Z,1018.17
2018-02-27T07:13:27.785Z,1018.18
2018-02-27T07:14:37.740Z,1018.17
2018-02-27T07:15:47.165Z,1018.16
2018-02-27T07:16:56.860Z,1018.18
2018-02-27T07:18:06.282Z,1018.14
2018-02-27T07:19:15.975Z,1018.1
2018-02-27T07:20:25.154Z,1018.11
2018-02-27T07:21:34.863Z,1018.12
2018-02-27T07:22:44.581Z,1018.13
2018-02-27T07:23:54.028Z,1018.12
2018-02-27T07:25:03.710Z,1018.06
2018-02-27T07:26:13.647Z,1018.09
2018-02-27T07:27:23.337Z,1018.1
2018-02-27T07:28:33.048Z,1018.12
2018-02-27T07:29:43.243Z,1018.11
2018-02-27T07:30:52.944Z,1018.14
2018-02-27T07:32:02.925Z,1018.16
2018-02-27T07:33:12.623Z,1018.18
2018-02-27T07:34:22.589Z,1018.17
2018-02-27T07:35:32.021Z,1018.24
2018-02-27T07:36:41.984Z,1018.14
2018-02-27T07:37:51.682Z,1018.12
2018-02-27T07:39:01.644Z,1018.19
2018-02-27T07:40:11.313Z,1018.15
2018-02-27T07:41:21.001Z,1018.19
2018-02-27T07:42:30.967Z,1018.2
2018-02-27T07:43:40.936Z,1018.17
2018-02-27T07:44:50.630Z,1018.14
2018-02-27T07:46:00.068Z,1018.12
2018-02-27T07:47:10.042Z,1018.13
2018-02-27T07:48:20.250Z,1018.07
2018-02-27T07:49:30.291Z,1018.08
2018-02-27T07:50:40.252Z,1018.05
2018-02-27T07:51:50.207Z,1018.04
2018-02-27T07:52:59.933Z,1018.04
2018-02-27T07:54:09.374Z,1018.01
2018-02-27T07:55:19.062Z,1018.03
2018-02-27T07:56:28.755Z,1018.03
2018-02-27T07:57:38.720Z,1018.03
2018-02-27T07:58:48.416Z,1018.05
2018-02-27T07:59:58.108Z,1018.09
2018-02-27T08:01:08.090Z,1018.03
2018-02-27T08:02:17.826Z,1018.03
2018-02-27T08:03:27.761Z,1018.03
2018-02-27T08:04:37.468Z,1018.04
2018-02-27T08:05:46.895Z,1018.03
2018-02-27T08:06:56.593Z,1018.05
2018-02-27T08:08:05.778Z,1017.96
2018-02-27T08:09:15.468Z,1018
2018-02-27T08:10:25.447Z,1018.01
2018-02-27T08:11:35.418Z,1018
2018-02-27T08:12:45.376Z,1017.99
2018-02-27T08:13:55.342Z,1018
2018-02-27T08:15:05.040Z,1017.99
2018-02-27T08:16:15.006Z,1017.99
2018-02-27T08:17:25.034Z,1017.98
2018-02-27T08:18:34.494Z,1017.93
2018-02-27T08:19:44.484Z,1018.01
2018-02-27T08:20:54.192Z,1017.98
2018-02-27T08:22:03.884Z,1018.02
2018-02-27T08:23:13.335Z,1017.95
2018-02-27T08:24:22.779Z,1017.99
2018-02-27T08:25:32.971Z,1017.95
2018-02-27T08:26:42.442Z,1018.01
2018-02-27T08:27:52.392Z,1018.03
2018-02-27T08:29:01.606Z,1018
2018-02-27T08:30:11.297Z,1018
2018-02-27T08:31:21.266Z,1017.99
2018-02-27T08:32:30.980Z,1017.97
2018-02-27T08:33:40.941Z,1017.98
2018-02-27T08:34:50.967Z,1017.98
2018-02-27T08:36:00.138Z,1017.94
2018-02-27T08:37:10.110Z,1018
2018-02-27T08:38:19.567Z,1017.99
2018-02-27T08:39:29.265Z,1018
2018-02-27T08:40:38.721Z,1018.03
2018-02-27T08:41:48.470Z,1017.99
2018-02-27T08:42:58.731Z,1017.98
2018-02-27T08:44:08.176Z,1017.96
2018-02-27T08:45:18.329Z,1017.88
2018-02-27T08:46:27.804Z,1017.92
2018-02-27T08:47:37.303Z,1017.91
2018-02-27T08:48:47.269Z,1017.91
2018-02-27T08:49:57.244Z,1017.86
2018-02-27T08:51:07.218Z,1017.86
2018-02-27T08:52:17.191Z,1017.84
2018-02-27T08:53:27.167Z,1017.89
2018-02-27T08:54:36.894Z,1017.89
2018-02-27T08:55:46.600Z,1017.9
2018-02-27T08:56:56.579Z,1017.89
2018-02-27T08:58:06.257Z,1017.93
2018-02-27T08:59:15.974Z,1017.93
2018-02-27T09:00:25.406Z,1017.96
2018-02-27T09:01:35.112Z,1017.87
2018-02-27T09:02:45.101Z,1017.9
2018-02-27T09:03:54.554Z,1017.93
2018-02-27T09:05:04.527Z,1017.85
2018-02-27T09:06:14.494Z,1017.87
2018-02-27T09:07:24.465Z,1017.87
2018-02-27T09:08:33.932Z,1017.83
2018-02-27T09:09:43.676Z,1017.89
2018-02-27T09:10:53.652Z,1017.85
2018-02-27T09:12:03.106Z,1017.83
2018-02-27T09:13:13.077Z,1017.83
2018-02-27T09:14:22.799Z,1017.84
2018-02-27T09:15:32.498Z,1017.84
2018-02-27T09:16:42.463Z,1017.87
2018-02-27T09:17:52.469Z,1017.85
2018-02-27T09:19:02.430Z,1017.84
2018-02-27T09:20:11.886Z,1017.81
2018-02-27T09:21:21.370Z,1017.85
2018-02-27T09:22:31.080Z,1017.8
2018-02-27T09:23:40.881Z,1017.89
2018-02-27T09:24:50.723Z,1017.84
2018-02-27T09:26:00.694Z,1017.83
2018-02-27T09:27:09.903Z,1017.85
2018-02-27T09:28:19.870Z,1017.83
2018-02-27T09:29:29.979Z,1017.83
2018-02-27T09:30:40.023Z,1017.78
2018-02-27T09:31:50.018Z,1017.81
2018-02-27T09:32:59.717Z,1017.8
2018-02-27T09:34:09.698Z,1017.73
2018-02-27T09:35:19.418Z,1017.74
2018-02-27T09:36:29.140Z,1017.74
2018-02-27T09:37:39.106Z,1017.75
2018-02-27T09:38:48.414Z,1017.71
2018-02-27T09:39:58.136Z,1017.69
2018-02-27T09:41:07.853Z,1017.66
2018-02-27T09:42:17.621Z,1017.67
2018-02-27T09:43:27.623Z,1017.68
2018-02-27T09:44:37.085Z,1017.65
2018-02-27T09:45:47.061Z,1017.61
2018-02-27T09:46:57.081Z,1017.63
2018-02-27T09:48:06.809Z,1017.59
2018-02-27T09:49:16.807Z,1017.61
2018-02-27T09:50:26.788Z,1017.62
2018-02-27T09:51:36.247Z,1017.61
2018-02-27T09:52:45.979Z,1017.61
2018-02-27T09:53:55.959Z,1017.59
2018-02-27T09:55:05.419Z,1017.65
2018-02-27T09:56:15.400Z,1017.61
2018-02-27T09:57:25.156Z,1017.59
2018-02-27T09:58:34.863Z,1017.57
2018-02-27T09:59:44.447Z,1017.61
2018-02-27T10:00:54.152Z,1017.57
2018-02-27T10:02:04.145Z,1017.59
2018-02-27T10:03:14.127Z,1017.59
2018-02-27T10:04:23.841Z,1017.6
2018-02-27T10:05:33.564Z,1017.66
2018-02-27T10:06:43.313Z,1017.65
2018-02-27T10:07:53.019Z,1017.64
2018-02-27T10:09:02.751Z,1017.62
2018-02-27T10:10:12.481Z,1017.64
2018-02-27T10:11:22.471Z,1017.57
2018-02-27T10:12:31.665Z,1017.63
2018-02-27T10:13:41.388Z,1017.58
2018-02-27T10:14:51.389Z,1017.62
2018-02-27T10:16:01.132Z,1017.63
2018-02-27T10:17:10.900Z,1017.56
2018-02-27T10:18:20.646Z,1017.57
2018-02-27T10:19:29.851Z,1017.63
2018-02-27T10:20:39.307Z,1017.62
2018-02-27T10:21:49.300Z,1017.6
2018-02-27T10:22:59.270Z,1017.58
2018-02-27T10:24:09.010Z,1017.63
2018-02-27T10:25:18.745Z,1017.59
2018-02-27T10:26:28.733Z,1017.59
2018-02-27T10:27:38.804Z,1017.58
2018-02-27T10:28:48.280Z,1017.59
2018-02-27T10:29:58.011Z,1017.67
2018-02-27T10:31:07.750Z,1017.62
2018-02-27T10:32:17.522Z,1017.62
2018-02-27T10:33:27.494Z,1017.6
2018-02-27T10:34:37.227Z,1017.58
2018-02-27T10:35:47.299Z,1017.47
2018-02-27T10:36:57.053Z,1017.45
2018-02-27T10:38:06.506Z,1017.42
2018-02-27T10:39:16.508Z,1017.39
2018-02-27T10:40:26.003Z,1017.37
2018-02-27T10:41:35.480Z,1017.4
2018-02-27T10:42:45.504Z,1017.38
2018-02-27T10:43:55.227Z,1017.43
2018-02-27T10:45:05.226Z,1017.38
2018-02-27T10:46:15.299Z,1017.39
2018-02-27T10:47:25.211Z,1017.41
2018-02-27T10:48:34.933Z,1017.39
2018-02-27T10:49:44.410Z,1017.36
2018-02-27T10:50:54.442Z,1017.39
2018-02-27T10:52:04.381Z,1017.34
2018-02-27T10:53:14.438Z,1017.3
2018-02-27T10:54:24.230Z,1017.31
2018-02-27T10:55:34.255Z,1017.28
2018-02-27T10:56:44.262Z,1017.33
2018-02-27T10:57:54.028Z,1017.31
2018-02-27T10:59:03.532Z,1017.32
2018-02-27T11:00:13.280Z,1017.28
2018-02-27T11:01:23.289Z,1017.29
2018-02-27T11:02:33.026Z,1017.2
2018-02-27T11:03:42.510Z,1017.22
2018-02-27T11:04:52.520Z,1017.19
2018-02-27T11:06:01.966Z,1017.18
2018-02-27T11:07:11.695Z,1017.22
2018-02-27T11:08:21.153Z,1017.18
2018-02-27T11:09:30.901Z,1017.2
2018-02-27T11:10:40.356Z,1017.19
2018-02-27T11:11:50.085Z,1017.19
2018-02-27T11:12:59.568Z,1017.22
2018-02-27T11:14:09.010Z,1017.22
2018-02-27T11:15:18.794Z,1017.21
2018-02-27T11:16:28.290Z,1017.16
2018-02-27T11:17:37.767Z,1017.14
2018-02-27T11:18:47.519Z,1017.21
2018-02-27T11:19:57.313Z,1017.17
2018-02-27T11:21:07.126Z,1017.18
2018-02-27T11:22:16.871Z,1017.18
2018-02-27T11:23:27.074Z,1017.19
2018-02-27T11:24:37.039Z,1017.16
2018-02-27T11:25:47.019Z,1017.18
2018-02-27T11:26:56.531Z,1017.18
2018-02-27T11:28:06.515Z,1017.14
2018-02-27T11:29:16.522Z,1017.11
2018-02-27T11:30:26.540Z,1017.14
2018-02-27T11:31:36.003Z,1017.1
2018-02-27T11:32:45.480Z,1017.04
2018-02-27T11:33:55.222Z,1017.08
2018-02-27T11:35:05.211Z,1017.06
2018-02-27T11:36:14.962Z,1017.04
2018-02-27T11:37:24.454Z,1017.01
2018-02-27T11:38:34.177Z,1017
2018-02-27T11:39:43.900Z,1016.97
2018-02-27T11:40:53.644Z,1017
2018-02-27T11:42:03.632Z,1016.95
2018-02-27T11:43:12.829Z,1016.96
2018-02-27T11:44:22.560Z,1017.01
2018-02-27T11:45:32.590Z,1017.02
2018-02-27T11:46:42.059Z,1016.99
2018-02-27T11:47:51.802Z,1017
2018-02-27T11:49:01.280Z,1016.94
2018-02-27T11:50:11.014Z,1016.95
2018-02-27T11:51:21.006Z,1016.95
2018-02-27T11:52:30.753Z,1016.95
2018-02-27T11:53:40.754Z,1016.88
2018-02-27T11:54:50.478Z,1016.92
2018-02-27T11:56:00.457Z,1016.89
2018-02-27T11:57:09.660Z,1016.9
2018-02-27T11:58:19.400Z,1016.86
2018-02-27T11:59:29.112Z,1016.89
2018-02-27T12:00:39.143Z,1016.93
2018-02-27T12:01:49.131Z,1016.85
2018-02-27T12:02:58.847Z,1016.83
2018-02-27T12:04:08.816Z,1016.89
2018-02-27T12:05:18.536Z,1016.84
2018-02-27T12:06:28.266Z,1016.8
2018-02-27T12:07:37.981Z,1016.82
2018-02-27T12:08:47.960Z,1016.79
2018-02-27T12:09:57.673Z,1016.8
2018-02-27T12:11:07.134Z,1016.83
2018-02-27T12:12:16.843Z,1016.84
2018-02-27T12:13:26.815Z,1016.8
2018-02-27T12:14:36.012Z,1016.82
2018-02-27T12:15:46.006Z,1016.78
2018-02-27T12:16:55.737Z,1016.81
2018-02-27T12:18:05.443Z,1016.74
2018-02-27T12:19:15.170Z,1016.77
2018-02-27T12:20:25.142Z,1016.78
2018-02-27T12:21:34.329Z,1016.77
2018-02-27T12:22:44.336Z,1016.75
2018-02-27T12:23:54.074Z,1016.79
2018-02-27T12:25:04.044Z,1016.77
2018-02-27T12:26:13.498Z,1016.77
2018-02-27T12:27:22.966Z,1016.75
2018-02-27T12:28:32.952Z,1016.67
2018-02-27T12:29:42.672Z,1016.66
2018-02-27T12:30:52.657Z,1016.67
2018-02-27T12:32:02.388Z,1016.67
2018-02-27T12:33:11.843Z,1016.72
2018-02-27T12:34:21.637Z,1016.72
2018-02-27T12:35:31.669Z,1016.71
2018-02-27T12:36:41.409Z,1016.69
2018-02-27T12:37:51.159Z,1016.66
2018-02-27T12:39:01.142Z,1016.7
2018-02-27T12:40:11.227Z,1016.71
2018-02-27T12:41:20.942Z,1016.6
2018-02-27T12:42:30.930Z,1016.61
2018-02-27T12:43:40.925Z,1016.6
2018-02-27T12:44:50.637Z,1016.6
2018-02-27T12:46:00.618Z,1016.67
2018-02-27T12:47:10.637Z,1016.68
2018-02-27T12:48:20.606Z,1016.71
2018-02-27T12:49:30.318Z,1016.7
2018-02-27T12:50:40.311Z,1016.73
2018-02-27T12:51:50.284Z,1016.72
2018-02-27T12:53:00.000Z,1016.71
2018-02-27T12:54:09.453Z,1016.68
2018-02-27T12:55:19.428Z,1016.66
2018-02-27T12:56:28.876Z,1016.68
2018-02-27T12:57:38.834Z,1016.66
2018-02-27T12:58:48.560Z,1016.63
2018-02-27T12:59:58.256Z,1016.67
2018-02-27T13:01:07.489Z,1016.61
2018-02-27T13:02:17.192Z,1016.61
2018-02-27T13:03:27.180Z,1016.62
2018-02-27T13:04:36.901Z,1016.62
2018-02-27T13:05:46.887Z,1016.66
2018-02-27T13:06:57.121Z,1016.67
2018-02-27T13:08:06.838Z,1016.62
2018-02-27T13:09:16.800Z,1016.67
2018-02-27T13:10:26.761Z,1016.65
2018-02-27T13:11:36.741Z,1016.65
2018-02-27T13:12:46.450Z,1016.67
2018-02-27T13:13:56.469Z,1016.69
2018-02-27T13:15:05.685Z,1016.65
2018-02-27T13:16:15.117Z,1016.6
2018-02-27T13:17:24.552Z,1016.63
2018-02-27T13:18:34.249Z,1016.65
2018-02-27T13:19:43.921Z,1016.61
2018-02-27T13:20:53.627Z,1016.63
2018-02-27T13:22:03.577Z,1016.61
2018-02-27T13:23:13.037Z,1016.62
2018-02-27T13:24:22.768Z,1016.57
2018-02-27T13:25:32.495Z,1016.57
2018-02-27T13:26:42.517Z,1016.53
2018-02-27T13:27:52.537Z,1016.52
2018-02-27T13:29:02.304Z,1016.57
2018-02-27T13:30:12.010Z,1016.54
2018-02-27T13:31:22.181Z,1016.56
2018-02-27T13:32:32.174Z,1016.52
2018-02-27T13:33:42.334Z,1016.56
2018-02-27T13:34:52.302Z,1016.53
2018-02-27T13:36:02.063Z,1016.52
2018-02-27T13:37:12.223Z,1016.58
2018-02-27T13:38:22.184Z,1016.58
2018-02-27T13:39:32.177Z,1016.54
2018-02-27T13:40:42.143Z,1016.61
2018-02-27T13:41:51.866Z,1016.58
2018-02-27T13:43:01.913Z,1016.59
2018-02-27T13:44:11.913Z,1016.6
2018-02-27T13:45:21.628Z,1016.58
2018-02-27T13:46:31.626Z,1016.58
2018-02-27T13:47:41.377Z,1016.6
2018-02-27T13:48:51.433Z,1016.59
2018-02-27T13:50:09.263Z,1016.59
2018-02-27T13:51:18.981Z,1016.65
2018-02-27T13:52:28.940Z,1016.66
2018-02-27T13:53:38.148Z,1016.62
2018-02-27T13:54:48.124Z,1016.57
2018-02-27T13:55:57.557Z,1016.56
2018-02-27T13:57:07.653Z,1016.57
2018-02-27T13:58:17.131Z,1016.53
2018-02-27T13:59:27.108Z,1016.59
2018-02-27T14:00:36.803Z,1016.56
2018-02-27T14:01:46.258Z,1016.55
2018-02-27T14:02:55.961Z,1016.54
2018-02-27T14:04:05.458Z,1016.52
2018-02-27T14:05:15.425Z,1016.55
2018-02-27T14:06:25.408Z,1016.51
2018-02-27T14:07:35.418Z,1016.52